Time;durP1;ratioP1;P1;durP2;ratioP2;P2;SDS_P1;SDS_P2;PMS_P1;PMS_P2;Temp;Humidity;BMP_temperature;BMP_pressure;BME280_temperature;BME280_humidity;BME280_pressure;Samples;Min_cycle;Max_cycle;Signal;HPM_P1;HPM_P2
2021/09/16 00:00:30;;;;;;;6.13;4.83;;;19.60;99.90;;;;;;5037390;28;20990;-74
2021/09/16 00:03:16;;;;;;;8.60;5.30;;;19.60;99.90;;;;;;5012426;28;20419;-74
2021/09/16 00:06:02;;;;;;;8.17;5.47;;;19.60;99.90;;;;;;5038231;28;20403;-74
2021/09/16 00:08:47;;;;;;;17.57;5.00;;;19.50;99.90;;;;;;5030854;28;20448;-74
2021/09/16 00:11:34;;;;;;;7.13;5.33;;;19.50;99.90;;;;;;5039555;28;20480;-74
2021/09/16 00:14:21;;;;;;;7.37;5.53;;;19.60;99.90;;;;;;5038143;28;20551;-73
2021/09/16 00:17:07;;;;;;;6.20;5.20;;;19.50;99.90;;;;;;5031695;28;20381;-74
2021/09/16 00:19:52;;;;;;;10.90;6.03;;;19.50;99.90;;;;;;5041552;28;20412;-74
2021/09/16 00:22:38;;;;;;;7.10;5.67;;;19.50;99.90;;;;;;5043793;28;20814;-73
2021/09/16 00:25:23;;;;;;;9.33;5.77;;;19.40;99.90;;;;;;5042964;28;20575;-74
2021/09/16 00:28:11;;;;;;;18.33;6.83;;;19.40;99.90;;;;;;5035602;28;20535;-74
2021/09/16 00:30:56;;;;;;;11.33;8.73;;;19.30;99.90;;;;;;5038792;28;20508;-74
2021/09/16 00:33:42;;;;;;;10.53;9.03;;;19.20;99.90;;;;;;5037317;28;20887;-75
2021/09/16 00:36:27;;;;;;;14.50;9.07;;;19.10;99.90;;;;;;5032218;28;20438;-74
2021/09/16 00:39:13;;;;;;;14.60;10.80;;;19.10;99.90;;;;;;5039684;28;20475;-73
2021/09/16 00:41:59;;;;;;;11.87;9.97;;;19.00;99.90;;;;;;5039651;28;20442;-74
2021/09/16 00:44:46;;;;;;;12.67;11.27;;;19.10;99.90;;;;;;5032218;28;20444;-74
2021/09/16 00:47:31;;;;;;;12.77;11.43;;;19.10;99.90;;;;;;5040496;28;20565;-74
2021/09/16 00:50:20;;;;;;;12.43;10.43;;;19.10;99.90;;;;;;5028461;28;20452;-74
2021/09/16 00:53:06;;;;;;;14.90;10.67;;;19.20;99.90;;;;;;5043128;28;21027;-74
2021/09/16 00:55:54;;;;;;;19.50;10.43;;;19.20;99.90;;;;;;5040894;28;20563;-74
2021/09/16 00:58:42;;;;;;;10.73;9.03;;;19.30;99.90;;;;;;5038704;28;20511;-74
2021/09/16 01:01:30;;;;;;;10.83;9.83;;;19.40;99.90;;;;;;5040762;28;20424;-74
2021/09/16 01:04:16;;;;;;;13.17;9.00;;;19.40;99.90;;;;;;5040969;28;20462;-73
2021/09/16 01:07:03;;;;;;;11.83;9.40;;;19.30;99.90;;;;;;5045843;28;21486;-74
2021/09/16 01:09:49;;;;;;;18.07;10.07;;;19.30;99.90;;;;;;5036672;28;20407;-74
2021/09/16 01:12:34;;;;;;;13.90;9.37;;;19.20;99.90;;;;;;5037969;28;20458;-74
2021/09/16 01:15:20;;;;;;;18.13;9.80;;;19.20;99.90;;;;;;5029654;28;20550;-74
2021/09/16 01:18:07;;;;;;;10.90;9.80;;;19.20;99.90;;;;;;5036018;28;20516;-74
2021/09/16 01:20:54;;;;;;;16.23;8.37;;;19.20;99.90;;;;;;5040105;28;20528;-74
2021/09/16 01:23:41;;;;;;;10.40;9.30;;;19.20;99.90;;;;;;5040031;28;20445;-74
2021/09/16 01:26:27;;;;;;;10.33;9.33;;;19.20;99.90;;;;;;5028566;28;20518;-73
2021/09/16 01:29:13;;;;;;;11.63;9.20;;;19.30;99.90;;;;;;5038218;28;20512;-74
2021/09/16 01:32:04;;;;;;;13.50;9.63;;;19.10;99.90;;;;;;5035742;28;20525;-73
2021/09/16 01:34:49;;;;;;;13.87;9.80;;;19.10;99.90;;;;;;5036213;28;20423;-74
2021/09/16 01:37:35;;;;;;;13.10;9.60;;;19.10;99.90;;;;;;5042888;28;20446;-74
2021/09/16 01:40:22;;;;;;;10.93;9.73;;;19.10;99.90;;;;;;5038879;28;20419;-73
2021/09/16 01:43:07;;;;;;;18.27;10.03;;;19.10;99.90;;;;;;5025405;28;20413;-74
2021/09/16 01:45:53;;;;;;;17.63;10.13;;;19.00;99.90;;;;;;5041669;28;20469;-73
2021/09/16 01:48:39;;;;;;;14.53;10.70;;;19.00;99.90;;;;;;5041588;28;20397;-73
2021/09/16 01:51:24;;;;;;;16.70;10.63;;;18.90;99.90;;;;;;5014757;28;20402;-74
2021/09/16 01:54:10;;;;;;;16.53;9.23;;;18.90;99.90;;;;;;5046096;28;20408;-73
2021/09/16 01:56:57;;;;;;;14.90;10.57;;;19.00;99.90;;;;;;5040481;28;20427;-75
2021/09/16 01:59:43;;;;;;;13.73;8.70;;;19.00;99.90;;;;;;5046440;28;20452;-73
2021/09/16 02:02:28;;;;;;;12.90;9.20;;;19.00;99.90;;;;;;5042087;28;20921;-74
2021/09/16 02:05:15;;;;;;;15.53;11.37;;;19.00;99.90;;;;;;5035706;28;20990;-74
2021/09/16 02:08:00;;;;;;;24.20;17.83;;;19.10;99.90;;;;;;5033032;28;20402;-74
2021/09/16 02:10:46;;;;;;;20.53;17.07;;;19.10;99.90;;;;;;5050378;28;20410;-73
2021/09/16 02:13:33;;;;;;;21.47;18.53;;;19.10;99.90;;;;;;5036631;28;20585;-74
2021/09/16 02:16:19;;;;;;;22.87;19.20;;;19.20;99.90;;;;;;5014883;28;20529;-74
2021/09/16 02:19:05;;;;;;;22.53;18.60;;;19.10;99.90;;;;;;5041880;28;20420;-74
2021/09/16 02:21:51;;;;;;;23.23;18.33;;;19.10;99.90;;;;;;5040473;28;20452;-75
2021/09/16 02:24:36;;;;;;;24.57;17.70;;;19.10;99.90;;;;;;5032583;28;20611;-74
2021/09/16 02:27:22;;;;;;;18.60;15.83;;;19.10;99.90;;;;;;5042583;28;20442;-74
2021/09/16 02:30:10;;;;;;;22.17;15.93;;;19.00;99.90;;;;;;5041201;28;20815;-74
2021/09/16 02:32:55;;;;;;;23.53;16.27;;;19.00;99.90;;;;;;5048309;28;20440;-74
2021/09/16 02:35:41;;;;;;;21.27;15.97;;;19.00;99.90;;;;;;5040197;28;20891;-74
2021/09/16 02:38:27;;;;;;;19.30;15.80;;;19.00;99.90;;;;;;5028295;28;20767;-74
2021/09/16 02:41:13;;;;;;;21.53;15.73;;;19.00;99.90;;;;;;5014778;28;20742;-74
2021/09/16 02:43:58;;;;;;;23.60;16.90;;;19.00;99.90;;;;;;5041434;28;20442;-74
2021/09/16 02:46:45;;;;;;;24.63;16.20;;;19.00;99.90;;;;;;5033139;28;20433;-74
2021/09/16 02:49:31;;;;;;;17.37;15.53;;;19.00;99.90;;;;;;5045113;28;20400;-74
2021/09/16 02:52:17;;;;;;;19.93;14.43;;;19.00;99.90;;;;;;5038219;28;20440;-73
2021/09/16 02:55:03;;;;;;;17.57;15.00;;;19.00;99.90;;;;;;5040879;28;20991;-73
2021/09/16 02:57:49;;;;;;;19.13;15.13;;;19.00;99.90;;;;;;5031235;28;20497;-73
2021/09/16 03:00:34;;;;;;;20.10;14.63;;;18.90;99.90;;;;;;5039319;28;20452;-73
2021/09/16 03:03:21;;;;;;;20.80;14.27;;;18.90;99.90;;;;;;5040533;28;20392;-73
2021/09/16 03:06:07;;;;;;;16.27;12.83;;;18.90;99.90;;;;;;5034243;28;20429;-73
2021/09/16 03:08:52;;;;;;;16.43;13.50;;;18.90;99.90;;;;;;5043024;28;20423;-73
2021/09/16 03:11:38;;;;;;;18.33;14.63;;;18.90;99.90;;;;;;5032866;28;21094;-73
2021/09/16 03:14:24;;;;;;;22.60;16.27;;;18.90;99.90;;;;;;5040905;28;20440;-74
2021/09/16 03:17:09;;;;;;;22.80;15.73;;;18.90;99.90;;;;;;5014565;28;20399;-74
2021/09/16 03:19:56;;;;;;;22.83;16.27;;;18.80;99.90;;;;;;5042798;28;20865;-74
2021/09/16 03:22:42;;;;;;;23.27;18.00;;;18.80;99.90;;;;;;5045291;28;20447;-74
2021/09/16 03:25:28;;;;;;;22.50;16.00;;;18.90;99.90;;;;;;5044307;28;20959;-74
2021/09/16 03:28:13;;;;;;;20.57;15.33;;;18.80;99.90;;;;;;5034092;28;20539;-74
2021/09/16 03:30:59;;;;;;;20.67;15.30;;;18.70;99.90;;;;;;5035290;28;20454;-74
2021/09/16 03:33:44;;;;;;;17.77;15.40;;;18.70;99.90;;;;;;5031608;28;20451;-75
2021/09/16 03:36:31;;;;;;;24.10;15.33;;;18.70;99.90;;;;;;5036606;28;21021;-74
2021/09/16 03:39:17;;;;;;;25.10;18.20;;;18.50;99.90;;;;;;5035845;28;20449;-74
2021/09/16 03:42:02;;;;;;;21.93;16.87;;;18.30;99.90;;;;;;5028263;28;20443;-74
2021/09/16 03:44:48;;;;;;;23.90;17.93;;;18.30;99.90;;;;;;5038707;28;20454;-74
2021/09/16 03:47:34;;;;;;;21.50;17.67;;;18.40;99.90;;;;;;5027073;28;20462;-74
2021/09/16 03:50:19;;;;;;;20.80;17.40;;;18.30;99.90;;;;;;5041089;28;20859;-74
2021/09/16 03:53:06;;;;;;;20.87;17.47;;;18.40;99.90;;;;;;5035152;28;20446;-74
2021/09/16 03:55:52;;;;;;;20.40;17.27;;;18.40;99.90;;;;;;5029992;28;20959;-73
2021/09/16 03:58:38;;;;;;;23.10;17.87;;;18.50;99.90;;;;;;5033195;28;20442;-74
2021/09/16 04:01:23;;;;;;;24.37;16.93;;;18.40;99.90;;;;;;5036158;28;20446;-74
2021/09/16 04:04:09;;;;;;;21.97;16.00;;;18.40;99.90;;;;;;5030173;28;20435;-74
2021/09/16 04:06:54;;;;;;;20.70;16.70;;;18.40;99.90;;;;;;5034779;28;20979;-74
2021/09/16 04:09:41;;;;;;;20.57;16.40;;;18.40;99.90;;;;;;5031033;28;20427;-74
2021/09/16 04:12:27;;;;;;;25.27;17.00;;;18.40;99.90;;;;;;5025832;28;20431;-74
2021/09/16 04:15:14;;;;;;;22.00;17.00;;;18.40;99.90;;;;;;5045508;28;20473;-74
2021/09/16 04:17:59;;;;;;;26.33;16.80;;;18.30;99.90;;;;;;5041320;28;20512;-74
2021/09/16 04:20:45;;;;;;;23.80;16.17;;;18.20;99.90;;;;;;5031378;28;20938;-74
2021/09/16 04:23:30;;;;;;;21.10;15.70;;;18.10;99.90;;;;;;5042988;28;20421;-74
2021/09/16 04:26:18;;;;;;;25.33;17.80;;;18.20;99.90;;;;;;5032573;28;20497;-73
2021/09/16 04:29:03;;;;;;;23.03;17.10;;;18.10;99.90;;;;;;5039045;28;20953;-74
2021/09/16 04:31:50;;;;;;;25.70;18.17;;;18.10;99.90;;;;;;5041529;28;20435;-74
2021/09/16 04:34:36;;;;;;;27.23;17.40;;;18.10;99.90;;;;;;5046568;28;20846;-74
2021/09/16 04:37:21;;;;;;;22.07;18.93;;;18.10;99.90;;;;;;5037598;28;20814;-74
2021/09/16 04:40:08;;;;;;;31.60;18.93;;;18.10;99.90;;;;;;5020635;28;20469;-74
2021/09/16 04:42:55;;;;;;;24.03;17.50;;;18.20;99.90;;;;;;5038686;28;20433;-73
2021/09/16 04:45:41;;;;;;;18.70;16.03;;;18.20;99.90;;;;;;5042365;28;20543;-74
2021/09/16 04:48:26;;;;;;;22.47;18.03;;;18.10;99.90;;;;;;5034160;28;21062;-75
2021/09/16 04:51:12;;;;;;;21.87;17.90;;;18.00;99.90;;;;;;5038847;28;20421;-74
2021/09/16 04:53:58;;;;;;;24.87;19.03;;;18.00;99.90;;;;;;5030397;28;20493;-74
2021/09/16 04:56:43;;;;;;;22.47;18.00;;;18.10;99.90;;;;;;5042812;28;20846;-74
2021/09/16 04:59:30;;;;;;;22.50;18.23;;;18.00;99.90;;;;;;5020322;28;20444;-74
2021/09/16 05:02:16;;;;;;;23.47;18.93;;;18.10;99.90;;;;;;5040222;28;20466;-74
2021/09/16 05:05:02;;;;;;;21.20;18.73;;;18.20;99.90;;;;;;5036670;28;20863;-74
2021/09/16 05:07:47;;;;;;;23.30;18.57;;;18.10;99.90;;;;;;5033781;28;20503;-74
2021/09/16 05:10:33;;;;;;;23.07;18.03;;;18.20;99.90;;;;;;5039651;28;20454;-74
2021/09/16 05:13:19;;;;;;;21.50;17.27;;;18.30;99.90;;;;;;5034390;28;20562;-73
2021/09/16 05:16:06;;;;;;;25.43;17.93;;;18.10;99.90;;;;;;5052791;28;20941;-73
2021/09/16 05:18:51;;;;;;;23.60;17.13;;;18.00;99.90;;;;;;5043404;28;20418;-74
2021/09/16 05:21:37;;;;;;;25.67;19.47;;;18.00;99.90;;;;;;5045586;28;20448;-73
2021/09/16 05:24:23;;;;;;;22.03;16.50;;;18.10;99.90;;;;;;5030246;28;20830;-74
2021/09/16 05:27:09;;;;;;;17.80;13.03;;;18.10;99.90;;;;;;5042203;28;20520;-74
2021/09/16 05:29:55;;;;;;;12.13;9.67;;;18.20;99.90;;;;;;5053035;28;20421;-74
2021/09/16 05:32:42;;;;;;;12.83;10.70;;;18.10;99.90;;;;;;5040583;28;20491;-73
2021/09/16 05:35:28;;;;;;;12.33;10.33;;;18.20;99.90;;;;;;5029739;28;20599;-73
2021/09/16 05:38:14;;;;;;;14.63;10.57;;;18.10;99.90;;;;;;5032899;28;20470;-73
2021/09/16 05:41:00;;;;;;;12.23;10.23;;;18.10;99.90;;;;;;5044310;28;20397;-73
2021/09/16 05:43:45;;;;;;;13.63;10.87;;;18.10;99.90;;;;;;5051295;28;20395;-74
2021/09/16 05:46:32;;;;;;;11.60;10.10;;;18.00;99.90;;;;;;5044643;28;20453;-74
2021/09/16 05:49:19;;;;;;;13.70;11.30;;;18.00;99.90;;;;;;5041765;28;20507;-74
2021/09/16 05:52:05;;;;;;;15.00;11.23;;;18.00;99.90;;;;;;5041027;28;20415;-74
2021/09/16 05:54:51;;;;;;;19.23;11.20;;;17.90;99.90;;;;;;5044860;28;20623;-74
2021/09/16 05:57:37;;;;;;;18.03;12.27;;;17.90;99.90;;;;;;5039771;28;20514;-73
2021/09/16 06:00:23;;;;;;;13.73;11.63;;;17.90;99.90;;;;;;5038445;28;20456;-73
2021/09/16 06:03:09;;;;;;;14.73;11.33;;;17.80;99.90;;;;;;5038282;28;21059;-75
2021/09/16 06:05:56;;;;;;;16.07;12.20;;;17.80;99.90;;;;;;5051891;28;20827;-73
2021/09/16 06:08:42;;;;;;;15.33;11.63;;;17.70;99.90;;;;;;5039563;28;20810;-73
2021/09/16 06:11:28;;;;;;;13.33;10.70;;;17.70;99.90;;;;;;5031288;28;20431;-74
2021/09/16 06:14:13;;;;;;;13.70;12.30;;;17.70;99.90;;;;;;5033859;28;20552;-73
2021/09/16 06:16:59;;;;;;;15.27;11.53;;;17.60;99.90;;;;;;5033811;28;20434;-74
2021/09/16 06:19:45;;;;;;;13.63;9.97;;;17.60;99.90;;;;;;5034097;28;20476;-73
2021/09/16 06:22:32;;;;;;;13.87;10.13;;;17.60;99.90;;;;;;5034187;28;20484;-73
2021/09/16 06:25:18;;;;;;;13.20;11.07;;;17.60;99.90;;;;;;5031928;28;20464;-73
2021/09/16 06:28:04;;;;;;;14.03;10.63;;;17.60;99.90;;;;;;5033618;28;20425;-73
2021/09/16 06:30:50;;;;;;;12.33;10.80;;;17.60;99.90;;;;;;5033934;28;20406;-74
2021/09/16 06:33:35;;;;;;;12.70;11.40;;;17.60;99.90;;;;;;5033574;28;20544;-73
2021/09/16 06:36:21;;;;;;;12.80;10.93;;;17.60;99.90;;;;;;5038912;28;20400;-73
2021/09/16 06:39:08;;;;;;;14.13;11.60;;;17.70;99.90;;;;;;5033934;28;20501;-73
2021/09/16 06:41:53;;;;;;;18.30;10.73;;;17.70;99.90;;;;;;5033053;28;20535;-73
2021/09/16 06:44:39;;;;;;;19.07;11.90;;;17.80;99.90;;;;;;5033932;28;20414;-73
2021/09/16 06:47:25;;;;;;;13.57;11.83;;;17.80;99.90;;;;;;5033528;28;20428;-73
2021/09/16 06:50:11;;;;;;;13.30;11.77;;;17.80;99.90;;;;;;5033145;28;20477;-74
2021/09/16 06:52:56;;;;;;;17.13;12.40;;;17.80;99.90;;;;;;5032390;28;20396;-73
2021/09/16 06:55:43;;;;;;;17.10;13.10;;;17.80;99.90;;;;;;5032473;28;20443;-73
2021/09/16 06:58:29;;;;;;;14.40;12.80;;;17.70;99.90;;;;;;5033385;28;20449;-73
2021/09/16 07:01:14;;;;;;;23.27;13.10;;;17.50;99.90;;;;;;5033078;28;20414;-73
2021/09/16 07:04:00;;;;;;;15.23;13.47;;;17.40;99.90;;;;;;5033139;28;20528;-73
2021/09/16 07:06:46;;;;;;;16.03;13.00;;;17.30;99.90;;;;;;5040896;28;20883;-73
2021/09/16 07:09:32;;;;;;;16.23;13.20;;;17.40;99.90;;;;;;5032047;28;20521;-73
2021/09/16 07:12:19;;;;;;;22.47;12.00;;;17.50;99.90;;;;;;5032827;28;20858;-73
2021/09/16 07:15:05;;;;;;;15.83;12.40;;;17.40;99.90;;;;;;5032397;28;20477;-73
2021/09/16 07:17:51;;;;;;;18.20;12.70;;;17.50;99.90;;;;;;5032782;28;20760;-73
2021/09/16 07:20:37;;;;;;;17.53;13.37;;;17.60;99.90;;;;;;5033295;28;20897;-73
2021/09/16 07:23:22;;;;;;;20.50;12.57;;;17.60;99.90;;;;;;5028734;28;20506;-73
2021/09/16 07:26:08;;;;;;;18.37;13.50;;;17.60;99.90;;;;;;5033076;28;20481;-73
2021/09/16 07:28:55;;;;;;;17.77;13.83;;;17.60;99.90;;;;;;5032477;28;20414;-74
2021/09/16 07:31:41;;;;;;;20.40;14.17;;;17.50;99.90;;;;;;5032943;28;20868;-73
2021/09/16 07:34:26;;;;;;;18.97;13.90;;;17.30;99.90;;;;;;5032183;28;20487;-73
2021/09/16 07:37:12;;;;;;;17.13;14.27;;;17.30;99.90;;;;;;5034217;28;20479;-74
2021/09/16 07:39:59;;;;;;;17.50;13.00;;;17.50;99.90;;;;;;5050934;28;20403;-73
2021/09/16 07:42:44;;;;;;;16.00;13.20;;;17.60;99.90;;;;;;5051946;28;20392;-73
2021/09/16 07:45:31;;;;;;;17.10;13.17;;;17.70;99.90;;;;;;5051803;28;20441;-73
2021/09/16 07:48:18;;;;;;;15.93;13.03;;;17.70;99.90;;;;;;5041906;28;20884;-73
2021/09/16 07:51:04;;;;;;;16.80;13.67;;;17.80;99.90;;;;;;5037114;28;20433;-74
2021/09/16 07:53:50;;;;;;;16.07;13.33;;;17.60;99.90;;;;;;5030435;28;20477;-74
2021/09/16 07:56:36;;;;;;;17.10;13.10;;;17.70;99.90;;;;;;5031813;28;20543;-73
2021/09/16 07:59:21;;;;;;;15.70;12.00;;;17.60;99.90;;;;;;5032132;28;20396;-73
2021/09/16 08:02:08;;;;;;;15.07;12.53;;;17.70;99.90;;;;;;5031751;28;20467;-74
2021/09/16 08:04:54;;;;;;;15.83;12.17;;;17.80;99.90;;;;;;5040352;28;20480;-73
2021/09/16 08:07:39;;;;;;;11.33;10.10;;;18.00;99.90;;;;;;5040463;28;20431;-73
2021/09/16 08:10:25;;;;;;;15.33;12.80;;;18.10;99.90;;;;;;5014067;28;20440;-73
2021/09/16 08:13:11;;;;;;;15.10;12.00;;;18.20;99.90;;;;;;5032253;28;20392;-73
2021/09/16 08:15:57;;;;;;;15.70;13.20;;;18.30;99.90;;;;;;5031709;28;20843;-74
2021/09/16 08:18:43;;;;;;;14.33;9.90;;;18.40;99.90;;;;;;5028488;28;20603;-74
2021/09/16 08:21:29;;;;;;;11.73;10.53;;;18.40;99.90;;;;;;5032598;28;20448;-74
2021/09/16 08:24:15;;;;;;;11.93;9.30;;;18.40;99.90;;;;;;5033868;28;20419;-74
2021/09/16 08:27:01;;;;;;;10.13;8.33;;;18.40;99.90;;;;;;5038499;28;20566;-73
2021/09/16 08:29:46;;;;;;;10.50;9.20;;;18.30;99.90;;;;;;5045072;28;20456;-73
2021/09/16 08:32:32;;;;;;;16.20;10.60;;;18.30;99.90;;;;;;5034736;28;20588;-73
2021/09/16 08:35:20;;;;;;;9.40;8.40;;;18.40;99.90;;;;;;5035909;28;20993;-73
2021/09/16 08:38:06;;;;;;;12.23;9.27;;;18.50;99.90;;;;;;5030477;28;20457;-74
2021/09/16 08:40:51;;;;;;;12.50;10.13;;;18.50;99.90;;;;;;5041613;28;20572;-74
2021/09/16 08:43:38;;;;;;;12.40;9.70;;;18.40;99.90;;;;;;5048723;28;20972;-73
2021/09/16 08:46:24;;;;;;;13.07;10.07;;;18.60;99.90;;;;;;5038199;28;20417;-74
2021/09/16 08:49:10;;;;;;;13.70;9.57;;;18.60;99.90;;;;;;5033323;28;20448;-74
2021/09/16 08:51:57;;;;;;;13.73;8.77;;;18.70;99.90;;;;;;5037237;28;20461;-73
2021/09/16 08:54:45;;;;;;;11.07;8.80;;;18.50;99.90;;;;;;5051269;28;20550;-74
2021/09/16 08:57:30;;;;;;;15.37;8.77;;;18.50;99.90;;;;;;5011555;28;20434;-75
2021/09/16 09:00:18;;;;;;;9.90;8.90;;;18.60;99.90;;;;;;5011575;28;20437;-73
2021/09/16 09:03:04;;;;;;;11.93;9.53;;;18.70;99.90;;;;;;5036177;28;20451;-74
2021/09/16 09:05:50;;;;;;;11.40;8.13;;;18.80;99.90;;;;;;5031002;28;21086;-74
2021/09/16 09:08:37;;;;;;;17.57;7.40;;;18.90;99.90;;;;;;5031132;28;20453;-73
2021/09/16 09:11:23;;;;;;;12.90;7.63;;;18.90;99.90;;;;;;5032800;28;20856;-74
2021/09/16 09:14:09;;;;;;;11.00;7.23;;;18.50;99.90;;;;;;5073665;22;20561;-78
2021/09/16 09:16:55;;;;;;;13.93;7.93;;;18.30;99.90;;;;;;5009896;28;20802;-77
2021/09/16 09:19:42;;;;;;;11.30;7.40;;;17.90;99.90;;;;;;5010337;28;20416;-77
2021/09/16 09:22:30;;;;;;;11.57;7.87;;;17.80;99.90;;;;;;5012097;28;20401;-78
2021/09/16 09:25:19;;;;;;;9.90;7.27;;;17.90;99.90;;;;;;5011002;28;20442;-78
2021/09/16 09:28:04;;;;;;;10.40;7.63;;;17.70;99.90;;;;;;5011608;28;21058;-78
2021/09/16 09:30:50;;;;;;;10.80;7.13;;;17.60;99.90;;;;;;5011604;28;20422;-78
2021/09/16 09:33:36;;;;;;;9.63;7.10;;;17.80;99.90;;;;;;5009557;28;21034;-78
2021/09/16 09:36:22;;;;;;;10.07;6.80;;;18.00;99.90;;;;;;5000408;28;20458;-78
2021/09/16 09:39:08;;;;;;;10.63;6.67;;;18.10;99.90;;;;;;5011568;28;20398;-78
2021/09/16 09:41:55;;;;;;;8.77;7.53;;;18.30;99.90;;;;;;5008444;28;20840;-78
2021/09/16 09:44:41;;;;;;;10.57;7.90;;;18.50;99.90;;;;;;5011795;28;20437;-78
2021/09/16 09:47:37;;;;;;;8.70;6.13;;;18.80;99.90;;;;;;5015325;28;20562;-78
2021/09/16 09:50:25;;;;;;;12.17;7.60;;;19.00;99.90;;;;;;5013361;28;20428;-78
2021/09/16 09:53:15;;;;;;;11.53;6.57;;;18.80;99.90;;;;;;5015197;28;20393;-78
2021/09/16 09:56:10;;;;;;;12.20;6.87;;;18.70;99.90;;;;;;5014273;28;20474;-78
2021/09/16 09:58:57;;;;;;;11.30;7.10;;;18.80;99.90;;;;;;5014769;28;20396;-78
2021/09/16 10:01:43;;;;;;;11.30;6.70;;;18.80;99.90;;;;;;5014701;28;20431;-78
2021/09/16 10:04:30;;;;;;;12.40;6.63;;;18.90;99.90;;;;;;5013165;28;20581;-78
2021/09/16 10:07:28;;;;;;;14.47;5.90;;;19.00;99.90;;;;;;5016201;28;20413;-78
2021/09/16 10:10:15;;;;;;;12.07;3.93;;;19.10;99.90;;;;;;4997991;28;20919;-78
2021/09/16 10:13:01;;;;;;;6.20;4.47;;;19.00;99.90;;;;;;5014383;28;20582;-77
2021/09/16 10:15:49;;;;;;;6.80;4.13;;;18.80;99.90;;;;;;5013964;28;20478;-79
2021/09/16 10:18:35;;;;;;;31.30;5.07;;;18.80;99.90;;;;;;5009346;28;20432;-78
2021/09/16 10:21:21;;;;;;;6.23;3.43;;;19.10;99.90;;;;;;5014626;28;20459;-78
2021/09/16 10:24:08;;;;;;;7.83;3.57;;;19.20;99.90;;;;;;5014240;28;20899;-78
2021/09/16 10:26:54;;;;;;;5.83;3.50;;;19.00;99.90;;;;;;5012917;28;20609;-77
2021/09/16 10:29:39;;;;;;;7.93;3.87;;;19.00;99.90;;;;;;5014288;28;20433;-78
2021/09/16 10:32:42;;;;;;;5.70;3.07;;;19.20;99.90;;;;;;5014558;28;20834;-76
2021/09/16 10:35:27;;;;;;;5.80;2.93;;;19.60;99.90;;;;;;5009245;28;20808;-77
2021/09/16 10:38:26;;;;;;;9.10;3.67;;;19.90;99.90;;;;;;5014131;28;20484;-77
2021/09/16 10:41:23;;;;;;;5.07;3.10;;;19.90;99.90;;;;;;5014023;28;20449;-76
2021/09/16 10:44:22;;;;;;;5.57;2.77;;;20.00;99.90;;;;;;5011625;28;20461;-76
2021/09/16 10:47:16;;;;;;;8.97;3.20;;;20.10;99.90;;;;;;4994406;28;20420;-76
2021/09/16 10:50:20;;;;;;;5.20;2.40;;;20.00;99.90;;;;;;5010080;28;20440;-77
2021/09/16 10:53:30;;;;;;;10.23;2.43;;;19.80;99.90;;;;;;5014082;28;20389;-76
2021/09/16 10:56:39;;;;;;;9.13;3.00;;;19.90;99.90;;;;;;5009725;28;20823;-77
2021/09/16 10:59:25;;;;;;;4.53;3.30;;;19.90;99.90;;;;;;4994299;28;20407;-76
2021/09/16 11:02:10;;;;;;;6.97;3.27;;;20.00;99.90;;;;;;5010854;28;20476;-77
2021/09/16 11:05:10;;;;;;;6.10;2.93;;;20.20;99.90;;;;;;5013531;28;20430;-77
2021/09/16 11:07:59;;;;;;;5.00;2.83;;;20.60;99.90;;;;;;5015747;28;20397;-76
2021/09/16 11:11:02;;;;;;;3.07;2.40;;;20.70;99.90;;;;;;5014449;28;20394;-76
2021/09/16 11:13:54;;;;;;;7.07;2.77;;;20.70;99.90;;;;;;5013691;28;20459;-77
2021/09/16 11:16:40;;;;;;;5.27;3.50;;;20.70;99.90;;;;;;5013626;28;20466;-77
2021/09/16 11:19:26;;;;;;;3.77;3.00;;;20.70;99.90;;;;;;5012183;28;20809;-77
2021/09/16 11:22:12;;;;;;;5.67;2.80;;;20.40;97.30;;;;;;5013434;28;20529;-77
2021/09/16 11:25:00;;;;;;;4.97;3.23;;;20.00;99.90;;;;;;5012754;28;20458;-76
2021/09/16 11:27:45;;;;;;;11.60;2.40;;;20.00;99.90;;;;;;5013872;28;20499;-77
2021/09/16 11:30:31;;;;;;;5.03;2.33;;;20.30;99.90;;;;;;5013122;28;20397;-76
2021/09/16 11:33:20;;;;;;;7.10;2.77;;;20.10;99.90;;;;;;5008198;28;20426;-77
2021/09/16 11:36:06;;;;;;;3.97;2.87;;;20.20;99.50;;;;;;5012793;28;20482;-77
2021/09/16 11:39:13;;;;;;;6.03;3.00;;;20.00;99.90;;;;;;5009524;28;20450;-76
2021/09/16 11:42:20;;;;;;;3.97;2.47;;;19.60;99.90;;;;;;5013294;28;20431;-76
2021/09/16 11:45:13;;;;;;;12.00;3.67;;;19.70;99.90;;;;;;5011872;28;20811;-77
2021/09/16 11:48:01;;;;;;;6.20;3.07;;;20.00;98.90;;;;;;5009473;28;20971;-77
2021/09/16 11:50:49;;;;;;;5.90;3.10;;;20.20;99.20;;;;;;5010814;28;20455;-76
2021/09/16 11:53:36;;;;;;;4.50;2.53;;;20.50;99.70;;;;;;5011686;28;20425;-77
2021/09/16 11:56:21;;;;;;;4.13;2.40;;;20.80;99.20;;;;;;5007860;28;21096;-77
2021/09/16 11:59:11;;;;;;;7.30;2.60;;;20.80;95.90;;;;;;5013320;28;20422;-76
2021/09/16 12:01:57;;;;;;;4.27;2.17;;;20.80;96.00;;;;;;5006754;28;20466;-76
2021/09/16 12:04:43;;;;;;;3.73;2.33;;;20.80;94.40;;;;;;5012149;28;20468;-77
2021/09/16 12:07:29;;;;;;;5.70;2.70;;;21.00;93.70;;;;;;5006449;28;20437;-77
2021/09/16 12:10:15;;;;;;;4.03;2.57;;;21.00;90.10;;;;;;5007969;28;20426;-75
2021/09/16 12:13:01;;;;;;;4.73;2.70;;;20.70;90.60;;;;;;5010414;28;20476;-77
2021/09/16 12:15:53;;;;;;;10.17;2.87;;;20.30;92.40;;;;;;5008357;28;21138;-77
2021/09/16 12:18:41;;;;;;;3.70;2.80;;;20.20;92.60;;;;;;5010882;28;20461;-76
2021/09/16 12:21:30;;;;;;;4.47;2.40;;;20.30;93.90;;;;;;4999418;28;20947;-76
2021/09/16 12:24:18;;;;;;;5.10;2.60;;;20.70;93.70;;;;;;5011017;28;20426;-76
2021/09/16 12:27:04;;;;;;;5.33;2.70;;;20.80;94.10;;;;;;5007611;28;20442;-74
2021/09/16 12:29:54;;;;;;;3.40;2.43;;;20.80;94.60;;;;;;5011577;28;20494;-75
2021/09/16 12:32:41;;;;;;;5.20;3.07;;;20.80;92.00;;;;;;5008884;28;20880;-77
2021/09/16 12:35:27;;;;;;;3.13;2.37;;;21.10;91.70;;;;;;5008886;28;20505;-77
2021/09/16 12:38:13;;;;;;;4.87;2.70;;;21.30;90.30;;;;;;5004949;28;20424;-75
2021/09/16 12:41:19;;;;;;;3.40;2.53;;;21.40;90.20;;;;;;5008986;28;20903;-77
2021/09/16 12:44:09;;;;;;;6.70;2.50;;;21.70;88.70;;;;;;5010054;28;20415;-77
2021/09/16 12:46:56;;;;;;;5.30;2.33;;;21.50;86.50;;;;;;5007032;28;20494;-77
2021/09/16 12:49:51;;;;;;;4.80;2.63;;;21.50;81.00;;;;;;5008500;28;21015;-76
2021/09/16 12:52:36;;;;;;;9.43;2.97;;;21.30;85.80;;;;;;5008666;28;20478;-77
2021/09/16 12:55:22;;;;;;;6.27;2.63;;;21.10;86.90;;;;;;5002614;28;20479;-77
2021/09/16 12:58:08;;;;;;;6.30;2.60;;;20.90;85.60;;;;;;5004776;28;20450;-77
2021/09/16 13:01:02;;;;;;;7.77;2.43;;;20.90;87.90;;;;;;5006347;28;20551;-75
2021/09/16 13:04:02;;;;;;;3.03;2.60;;;20.40;90.50;;;;;;5007883;28;20971;-76
2021/09/16 13:06:49;;;;;;;4.17;2.80;;;20.10;94.00;;;;;;5004583;28;20929;-75
2021/09/16 13:09:35;;;;;;;7.10;2.27;;;20.20;92.00;;;;;;5005348;28;20448;-76
2021/09/16 13:12:21;;;;;;;6.43;2.67;;;20.30;95.30;;;;;;5003152;28;20477;-76
2021/09/16 13:15:09;;;;;;;4.30;2.40;;;20.40;92.10;;;;;;5009427;28;20877;-75
2021/09/16 13:17:55;;;;;;;7.23;3.10;;;20.50;93.20;;;;;;5010942;28;20442;-77
2021/09/16 13:20:41;;;;;;;3.60;2.60;;;20.30;92.70;;;;;;5012330;28;20942;-77
2021/09/16 13:23:29;;;;;;;5.70;3.27;;;20.30;93.60;;;;;;5006763;28;20499;-77
2021/09/16 13:26:14;;;;;;;3.70;2.73;;;20.00;91.90;;;;;;5009607;28;20485;-77
2021/09/16 13:29:00;;;;;;;2.63;2.40;;;19.90;92.20;;;;;;5011986;28;20445;-77
2021/09/16 13:31:46;;;;;;;4.53;2.80;;;20.00;93.20;;;;;;5011940;28;20420;-77
2021/09/16 13:34:31;;;;;;;3.50;2.70;;;20.10;92.30;;;;;;5013946;28;20441;-77
2021/09/16 13:37:17;;;;;;;5.50;2.63;;;20.20;92.30;;;;;;5010702;28;20448;-76
2021/09/16 13:40:05;;;;;;;6.93;2.80;;;20.40;91.60;;;;;;5012900;28;20421;-76
2021/09/16 13:42:51;;;;;;;4.33;2.80;;;20.50;92.30;;;;;;5008555;28;20427;-76
2021/09/16 13:45:37;;;;;;;4.00;2.83;;;20.40;91.40;;;;;;5010375;28;20437;-76
2021/09/16 13:48:23;;;;;;;4.70;2.37;;;20.30;91.40;;;;;;5007028;28;21056;-77
2021/09/16 13:51:09;;;;;;;3.17;2.53;;;20.20;92.50;;;;;;5007277;28;20467;-76
2021/09/16 13:53:55;;;;;;;4.90;2.90;;;20.60;92.20;;;;;;5012893;28;20451;-76
2021/09/16 13:56:41;;;;;;;6.53;3.23;;;21.20;87.50;;;;;;5009800;28;20930;-77
2021/09/16 13:59:27;;;;;;;5.90;2.67;;;21.30;81.60;;;;;;5009238;28;20982;-76
2021/09/16 14:02:13;;;;;;;4.07;3.27;;;21.10;83.20;;;;;;5004650;28;21029;-77
2021/09/16 14:04:59;;;;;;;3.00;2.50;;;21.20;82.70;;;;;;5009096;28;21191;-77
2021/09/16 14:07:45;;;;;;;3.83;2.90;;;21.00;80.40;;;;;;5007941;28;20478;-76
2021/09/16 14:10:31;;;;;;;4.10;2.70;;;21.00;81.00;;;;;;5011822;28;20448;-76
2021/09/16 14:13:18;;;;;;;6.03;3.60;;;21.30;78.20;;;;;;5009890;28;20455;-75
2021/09/16 14:16:04;;;;;;;4.73;2.47;;;21.20;77.50;;;;;;5006982;28;20499;-76